ETOU/WIE METAR and TAF weather

Enter ICAO airport designator
Station Type Date Time Source
ETOU METAR 2018/01/19 16:56 UTC NOAA

ETOU 191656Z AUTO 26007KT 9999 FEW060 BKN100 01/M01 A2983 RMK AO2 SLP110 T00101012 $


Station Type Date Time Source
ETOU Decoded METAR 2018/01/19 16:56 UTC NOAA

Wiesbaden, Germany (ETOU) 50-03N 008-20E
Jan 19, 2018 - 11:56 AM EST / 2018.01.19 1656 UTC
Wind: from the W (260 degrees) at 8 MPH (7 KT):0
Visibility: greater than 7 mile(s):0
Sky conditions: mostly cloudy
Temperature: 33.8 F (1.0 C)
Windchill: 26 F (-3 C):1
Dew Point: 29.8 F (-1.2 C)
Relative Humidity: 85%
Pressure (altimeter): 29.83 in. Hg (1010 hPa)
ob: ETOU 191656Z AUTO 26007KT 9999 FEW060 BKN100 01/M01 A2983 RMK AO2 SLP110 T00101012
cycle: 17

Station Type Date Time Source
ETOU TAF 2018/01/19 17:12 UTC NOAA

TAF TAF
AMD ETOU 191709Z 1917/2017 25012KT 9999 SCT020 BKN030 610308 QNH2971INS
BECMG 1923/1924 23012G20KT 9999 OVC010 610208 QNH2985INS
BECMG 2005/2006 25012KT 4000 -SN BKN009 OVC010 610109 QNH2986INS TX01/1917Z TNM02/2005Z LAST NO
AMDS AFT 1917 NEXT 2103


Example: see airport list